Terminal Aerodrome Forecast
Issued by NWS

Home | Current Version | Previous Version | Text Only | Print | Product List | Glossary On
Versions: 1 2 3 4 5 6 7 8 9 10 11 12 13 14 15 16 17
092
FTUS43 KICT 050520
TAFCNU
TAF
KCNU 050520Z 0506/0606 VRB04KT 2SM BR BKN002
      TEMPO 0508/0512 1/4SM FG
     FM051500 17005KT 3SM BR SCT005
     FM051600 18010KT P6SM SCT250
     FM060000 17005KT P6SM BKN250=

USA.gov is the U.S. government's official web portal to all federal, state and local government web resources and services.